Bf Caloosa — CQET — position and weather

sailwx.info

Track history (hours):
 
Tides and Currents Weather Stations Pressure Air Temp Water Temp Dewpoint Dewpoint Depression Visibility Wind Speed Wind Dir Waves Ship Positions

Bf Caloosa

Last reported at 2018-Jun-15 19:18 UTC. Time now 2018-Jul-15 20:48 UTC.
Position N 37°39' E 023°45'.
Warning: this ship's position is 30 days out of date.

Length 130 m; draft 6 m.

Type: Cargo ship. MMSI: 255805697.

Date/timePositionNaut miles runAvg speedWind from/ knotsBaromVisibWave heightAir tempDewpointWater temp
2018-Jun-15 19:18N 37°39' E 023°45'311.8
2018-Jun-15 19:00N 37°42' E 023°42'612.7
2018-Jun-15 18:30N 37°47' E 023°38'611.9
2018-Jun-15 18:00N 37°53' E 023°37'4 8.0
2018-Jun-15 17:30N 37°57' E 023°36'0 0.2
2018-Jun-15 17:00N 37°57' E 023°36'0 0.0
2018-Jun-15 16:30N 37°57' E 023°36'0 0.0
2018-Jun-15 15:59N 37°57' E 023°36'0 0.0
2018-Jun-15 15:29N 37°57' E 023°36'0 0.0
2018-Jun-15 14:59N 37°57' E 023°36'0 0.0
2018-Jun-15 14:30N 37°57' E 023°36'0 0.0
2018-Jun-15 13:58N 37°57' E 023°36'0 0.0
2018-Jun-15 13:28N 37°57' E 023°36'0 0.0
2018-Jun-15 12:58N 37°57' E 023°36'0 0.0
2018-Jun-15 12:28N 37°57' E 023°36'0 0.0
2018-Jun-15 12:00N 37°57' E 023°36'0 0.0
2018-Jun-15 11:30N 37°57' E 023°36'0 0.0
2018-Jun-15 11:00N 37°57' E 023°36'0 0.0
2018-Jun-15 10:30N 37°57' E 023°36'0 0.0
2018-Jun-15 10:00N 37°57' E 023°36'0 0.0
2018-Jun-15 09:29N 37°57' E 023°36'0 0.0
2018-Jun-15 08:59N 37°57' E 023°36'0 0.0
2018-Jun-15 08:29N 37°57' E 023°36'0 0.0
2018-Jun-15 07:59N 37°57' E 023°36'0 0.0
2018-Jun-15 07:28N 37°57' E 023°36'0 0.0
2018-Jun-15 06:58N 37°57' E 023°36'0 0.0
2018-Jun-15 06:25N 37°57' E 023°36'0 0.0
2018-Jun-15 05:58N 37°57' E 023°36'0 0.0
2018-Jun-15 05:31N 37°57' E 023°36'0 0.0
2018-Jun-15 04:57N 37°57' E 023°36'0 0.0
2018-Jun-15 04:31N 37°57' E 023°36'1 2.1
2018-Jun-15 04:01N 37°56' E 023°36'2 4.1
2018-Jun-15 03:31N 37°54' E 023°35'2 4.0
2018-Jun-15 03:01N 37°52' E 023°37'3 6.0
2018-Jun-15 02:30N 37°50' E 023°39'612.5
2018-Jun-15 02:01N 37°44' E 023°43'611.8
2018-Jun-15 01:30N 37°39' E 023°45'612.7
2018-Jun-15 01:00N 37°33' E 023°43'713.9
2018-Jun-15 00:31N 37°26' E 023°41'713.5
2018-Jun-15 00:00N 37°19' E 023°39'713.2
2018-Jun-14 23:30N 37°13' E 023°38'613.0
2018-Jun-14 23:00N 37°06' E 023°36'2713.4
2018-Jun-14 21:01N 36°41' E 023°24'1812.8
2018-Jun-14 19:37N 36°25' E 023°16'312.6
2018-Jun-14 19:20N 36°23' E 023°13'513.3
2018-Jun-14 18:59N 36°23' E 023°07'  
2018-Jun-11 17:46N 37°06' E 003°56'313.5
2018-Jun-11 17:31N 37°06' E 003°52'713.5
2018-Jun-11 16:59N 37°05' E 003°43'814.0
2018-Jun-11 16:24N 37°04' E 003°33'614.3
2018-Jun-11 15:59N 37°03' E 003°25'714.2
2018-Jun-11 15:29N 37°02' E 003°17'714.0
2018-Jun-11 15:00N 37°01' E 003°08'714.1
2018-Jun-11 14:30N 36°60' E 002°60'914.3
2018-Jun-11 13:51N 36°58' E 002°48'514.4
2018-Jun-11 13:31N 36°57' E 002°42'814.2
2018-Jun-11 12:58N 36°56' E 002°32'15213.6
2018-Jun-11 01:47N 36°34' W 000°35'312.1
2018-Jun-11 01:30N 36°33' W 000°39'22213.3
2018-Jun-10 08:49N 36°01' W 005°12'516.0
2018-Jun-10 08:30N 35°60' W 005°18'815.5
2018-Jun-10 08:00N 35°58' W 005°27'714.0
2018-Jun-10 07:29N 35°56' W 005°36'612.8
2018-Jun-10 07:00N 35°55' W 005°43'  
2018-Jun-07 16:23N 39°00' W 022°31'7212.8
2018-Jun-07 10:48N 39°12' W 024°02'1313.0
2018-Jun-07 09:49N 39°15' W 024°18'413.4
2018-Jun-07 09:30N 39°15' W 024°23'1813.7
2018-Jun-07 08:10N 39°18' W 024°47'2013.6
2018-Jun-07 06:41N 39°21' W 025°12'513.5
2018-Jun-07 06:18N 39°22' W 025°19'413.4
2018-Jun-07 06:00N 39°23' W 025°24'10914.0
2018-Jun-06 22:12N 39°37' W 027°44'314.3
2018-Jun-06 22:00N 39°37' W 027°48'914.2
2018-Jun-06 21:24N 39°38' W 027°59'614.0
2018-Jun-06 21:00N 39°39' W 028°06'714.2
2018-Jun-06 20:30N 39°40' W 028°15'714.2
2018-Jun-06 20:00N 39°40' W 028°25'714.0
2018-Jun-06 19:30N 39°41' W 028°34'714.0
2018-Jun-06 19:00N 39°42' W 028°43'713.7
2018-Jun-06 18:30N 39°42' W 028°51'713.6
2018-Jun-06 18:01N 39°43' W 029°00'713.4
2018-Jun-06 17:30N 39°44' W 029°09'713.6
2018-Jun-06 17:00N 39°45' W 029°18'713.8
2018-Jun-06 16:30N 39°46' W 029°26'713.6
2018-Jun-06 16:00N 39°46' W 029°35'713.8
2018-Jun-06 15:30N 39°47' W 029°44'1613.7
2018-Jun-06 14:18N 39°49' W 030°06'4713.6
2018-Jun-06 10:52N 39°53' W 031°06'513.8
2018-Jun-06 10:30N 39°53' W 031°13'1613.7
2018-Jun-06 09:20N 39°52' W 031°34'913.7
2018-Jun-06 08:41N 39°52' W 031°46'  
Track history (hours):
 
Tides and Currents Weather Stations Pressure Air Temp Water Temp Dewpoint Dewpoint Depression Visibility Wind Speed Wind Dir Waves Ship Positions

Bf Caloosa

Last reported at 2018-Jun-15 19:18 UTC. Time now 2018-Jul-15 20:48 UTC.
Position N 37°39' E 023°45'.
Warning: this ship's position is 30 days out of date.

Length 130 m; draft 6 m.

Type: Cargo ship. MMSI: 255805697.

Date/timePositionNaut miles runAvg speedWind from/ knotsBaromVisibWave heightAir tempDewpointWater temp
2018-Jun-15 19:18N 37°39' E 023°45'311.8
2018-Jun-15 19:00N 37°42' E 023°42'612.7
2018-Jun-15 18:30N 37°47' E 023°38'611.9
2018-Jun-15 18:00N 37°53' E 023°37'4 8.0
2018-Jun-15 17:30N 37°57' E 023°36'0 0.2
2018-Jun-15 17:00N 37°57' E 023°36'0 0.0
2018-Jun-15 16:30N 37°57' E 023°36'0 0.0
2018-Jun-15 15:59N 37°57' E 023°36'0 0.0
2018-Jun-15 15:29N 37°57' E 023°36'0 0.0
2018-Jun-15 14:59N 37°57' E 023°36'0 0.0
2018-Jun-15 14:30N 37°57' E 023°36'0 0.0
2018-Jun-15 13:58N 37°57' E 023°36'0 0.0
2018-Jun-15 13:28N 37°57' E 023°36'0 0.0
2018-Jun-15 12:58N 37°57' E 023°36'0 0.0
2018-Jun-15 12:28N 37°57' E 023°36'0 0.0
2018-Jun-15 12:00N 37°57' E 023°36'0 0.0
2018-Jun-15 11:30N 37°57' E 023°36'0 0.0
2018-Jun-15 11:00N 37°57' E 023°36'0 0.0
2018-Jun-15 10:30N 37°57' E 023°36'0 0.0
2018-Jun-15 10:00N 37°57' E 023°36'0 0.0
2018-Jun-15 09:29N 37°57' E 023°36'0 0.0
2018-Jun-15 08:59N 37°57' E 023°36'0 0.0
2018-Jun-15 08:29N 37°57' E 023°36'0 0.0
2018-Jun-15 07:59N 37°57' E 023°36'0 0.0
2018-Jun-15 07:28N 37°57' E 023°36'0 0.0
2018-Jun-15 06:58N 37°57' E 023°36'0 0.0
2018-Jun-15 06:25N 37°57' E 023°36'0 0.0
2018-Jun-15 05:58N 37°57' E 023°36'0 0.0
2018-Jun-15 05:31N 37°57' E 023°36'0 0.0
2018-Jun-15 04:57N 37°57' E 023°36'0 0.0
2018-Jun-15 04:31N 37°57' E 023°36'1 2.1
2018-Jun-15 04:01N 37°56' E 023°36'2 4.1
2018-Jun-15 03:31N 37°54' E 023°35'2 4.0
2018-Jun-15 03:01N 37°52' E 023°37'3 6.0
2018-Jun-15 02:30N 37°50' E 023°39'612.5
2018-Jun-15 02:01N 37°44' E 023°43'611.8
2018-Jun-15 01:30N 37°39' E 023°45'612.7
2018-Jun-15 01:00N 37°33' E 023°43'713.9
2018-Jun-15 00:31N 37°26' E 023°41'713.5
2018-Jun-15 00:00N 37°19' E 023°39'713.2
2018-Jun-14 23:30N 37°13' E 023°38'613.0
2018-Jun-14 23:00N 37°06' E 023°36'2713.4
2018-Jun-14 21:01N 36°41' E 023°24'1812.8
2018-Jun-14 19:37N 36°25' E 023°16'312.6
2018-Jun-14 19:20N 36°23' E 023°13'513.3
2018-Jun-14 18:59N 36°23' E 023°07'  
2018-Jun-11 17:46N 37°06' E 003°56'313.5
2018-Jun-11 17:31N 37°06' E 003°52'713.5
2018-Jun-11 16:59N 37°05' E 003°43'814.0
2018-Jun-11 16:24N 37°04' E 003°33'614.3
2018-Jun-11 15:59N 37°03' E 003°25'714.2
2018-Jun-11 15:29N 37°02' E 003°17'714.0
2018-Jun-11 15:00N 37°01' E 003°08'714.1
2018-Jun-11 14:30N 36°60' E 002°60'914.3
2018-Jun-11 13:51N 36°58' E 002°48'514.4
2018-Jun-11 13:31N 36°57' E 002°42'814.2
2018-Jun-11 12:58N 36°56' E 002°32'15213.6
2018-Jun-11 01:47N 36°34' W 000°35'312.1
2018-Jun-11 01:30N 36°33' W 000°39'22213.3
2018-Jun-10 08:49N 36°01' W 005°12'516.0
2018-Jun-10 08:30N 35°60' W 005°18'815.5
2018-Jun-10 08:00N 35°58' W 005°27'714.0
2018-Jun-10 07:29N 35°56' W 005°36'612.8
2018-Jun-10 07:00N 35°55' W 005°43'  
2018-Jun-07 16:23N 39°00' W 022°31'7212.8
2018-Jun-07 10:48N 39°12' W 024°02'1313.0
2018-Jun-07 09:49N 39°15' W 024°18'413.4
2018-Jun-07 09:30N 39°15' W 024°23'1813.7
2018-Jun-07 08:10N 39°18' W 024°47'2013.6
2018-Jun-07 06:41N 39°21' W 025°12'513.5
2018-Jun-07 06:18N 39°22' W 025°19'413.4
2018-Jun-07 06:00N 39°23' W 025°24'10914.0
2018-Jun-06 22:12N 39°37' W 027°44'314.3
2018-Jun-06 22:00N 39°37' W 027°48'914.2
2018-Jun-06 21:24N 39°38' W 027°59'614.0
2018-Jun-06 21:00N 39°39' W 028°06'714.2
2018-Jun-06 20:30N 39°40' W 028°15'714.2
2018-Jun-06 20:00N 39°40' W 028°25'714.0
2018-Jun-06 19:30N 39°41' W 028°34'714.0
2018-Jun-06 19:00N 39°42' W 028°43'713.7
2018-Jun-06 18:30N 39°42' W 028°51'713.6
2018-Jun-06 18:01N 39°43' W 029°00'713.4
2018-Jun-06 17:30N 39°44' W 029°09'713.6
2018-Jun-06 17:00N 39°45' W 029°18'713.8
2018-Jun-06 16:30N 39°46' W 029°26'713.6
2018-Jun-06 16:00N 39°46' W 029°35'713.8
2018-Jun-06 15:30N 39°47' W 029°44'1613.7
2018-Jun-06 14:18N 39°49' W 030°06'4713.6
2018-Jun-06 10:52N 39°53' W 031°06'513.8
2018-Jun-06 10:30N 39°53' W 031°13'1613.7
2018-Jun-06 09:20N 39°52' W 031°34'913.7
2018-Jun-06 08:41N 39°52' W 031°46'  

Dump ship's entire track history